Aérodrome :
LOGIN :

S'inscrire | Disclaimer

   EN    FR    IT 

 










Légende :    VFR   VFR Marginal   IFR   IFR Intensif   IFR Très Intensif
Visi : 
Plafond : 
>= 8 km
>= 3000ft
5 à 8 km
1000 à 3000 ft
1500m à 5 km
500 à 1000 ft
800 à 1500m
200 à 500 ft
< 800m
< 200 ft
Symboles :   Orages  Brouillard  Fortes neiges  Fortes précipitations  Vent > 20 kt
SIGMETs :   Divers  Orages  Givrage  Turbulence  Onde Orograph.  Cendres Volcan.






- Altitude de l'aérodrome : 27 ft
- Code IATA : PMI


LEPA - Palma de Mallorca

DERNIER METAR :
  • 272030Z VRB02KT 9999 FEW040 11/07 Q1018 NOSIG

METARs EXPIRÉS :
  • 272000Z 06002KT 9999 FEW040 13/07 Q1018 NOSIG
  • 271930Z 28003KT 230V020 9999 FEW040 14/07 Q1018 NOSIG
  • 271900Z 27004KT 230V360 9999 FEW040 14/07 Q1018 NOSIG
  • 271830Z 28008KT 250V320 9999 FEW040 16/07 Q1017 NOSIG
  • 271800Z 32004KT 9999 FEW040 16/08 Q1017 NOSIG

TAF TAF LEPA
Valide du 27 à 18h jusqu'au 28 à 18h UTC


271700Z 2718/2818 30009KT 9999 FEW020 TX23/2812Z TN10/2806Z
BECMG 2719/2721 04005KT
BECMG 2809/2811 22008KT



MET'MAP, la Météo Aéronautique d'un coup d'oeil ! - Copyright ORBIFLY Décembre 2007 - Disclaimer

ORBIFLY MET'MAP TEAM :

Programmation & Développement : Alexandra Zaïnal
Sur une idée originale de : Baudouin d'Aumeries
Assistance à la programmation : Marc-Olivier Méhu
Soutien technique & logistique : Manuel Goepfert

Contact : metmap@orbifly.com




SOURCES & CREDITS :

   NOAA